Terminal Aerodrome Forecast
Issued by NWS

Home | Current Version | Previous Version | Text Only | Print | Product List | Glossary On
Versions: 1 2 3 4 5 6 7 8 9 10 11 12 13 14 15 16 17 18 19 20 21 22 23 24 25
000
FTUS43 KGRR 141100
TAFAZO
TAF
KAZO 141140Z 1412/1512 00000KT 6SM MIFG SCT100
     FM141600 26008KT P6SM VCSH BKN040
     FM142200 26010G20KT P6SM VCTS BKN040CB=

USA.gov is the U.S. government's official web portal to all federal, state and local government web resources and services.